YV1893 SVCS-SVHG
Flight info
| Callsign | YV1893 |
|---|---|
| Flight time | 0h 26m |
| Altitude | 5500 |
| Route | DCT |
| Aircraft | C172/L-SD/C |
Departure
| Time | 2026-04-17 13:16 |
|---|---|
| Airport | Caracas Óscar Machado Zuloaga International Airport (SVCS) |
Arrival
| Time | 2026-04-17 13:42 |
|---|---|
| Airport | Higuerote Airport (SVHG) |
| Time | Latitude | Longitude | Altitude | Speed | Heading |
|---|---|---|---|---|---|
| 2026-04-17 13:08 | 10.28847 | -66.82051 | 2163 ft | 0 kts | 184° |
| 2026-04-17 13:11 | 10.28846 | -66.82051 | 2163 ft | 1 kts | 184° |
| 2026-04-17 13:11 | 10.28830 | -66.82068 | 2160 ft | 6 kts | 272° |
| 2026-04-17 13:11 | 10.28816 | -66.82120 | 2159 ft | 10 kts | 194° |
| 2026-04-17 13:11 | 10.28779 | -66.82151 | 2160 ft | 10 kts | 277° |
| 2026-04-17 13:12 | 10.28785 | -66.82232 | 2164 ft | 13 kts | 274° |
| 2026-04-17 13:12 | 10.28800 | -66.82449 | 2165 ft | 13 kts | 276° |
| 2026-04-17 13:12 | 10.28804 | -66.82523 | 2165 ft | 4 kts | 226° |
| 2026-04-17 13:13 | 10.28797 | -66.82522 | 2165 ft | 0 kts | 149° |
| 2026-04-17 13:13 | 10.28776 | -66.82511 | 2165 ft | 10 kts | 178° |
| 2026-04-17 13:13 | 10.28751 | -66.82495 | 2161 ft | 0 kts | 94° |
| 2026-04-17 13:14 | 10.28750 | -66.82486 | 2165 ft | 10 kts | 95° |
| 2026-04-17 13:14 | 10.28734 | -66.82266 | 2163 ft | 51 kts | 94° |
| 2026-04-17 13:14 | 10.28714 | -66.81974 | 2174 ft | 71 kts | 95° |
| 2026-04-17 13:15 | 10.28682 | -66.81490 | 2264 ft | 76 kts | 96° |
| 2026-04-17 13:15 | 10.28627 | -66.80972 | 2438 ft | 71 kts | 98° |
| 2026-04-17 13:15 | 10.28586 | -66.80462 | 2569 ft | 74 kts | 96° |
| 2026-04-17 13:15 | 10.28554 | -66.80103 | 2631 ft | 79 kts | 98° |
| 2026-04-17 13:16 | 10.28502 | -66.79564 | 2818 ft | 74 kts | 95° |
| 2026-04-17 13:16 | 10.28483 | -66.79060 | 2999 ft | 70 kts | 94° |
| 2026-04-17 13:16 | 10.28462 | -66.78541 | 3102 ft | 76 kts | 95° |
| 2026-04-17 13:16 | 10.28448 | -66.78007 | 3252 ft | 76 kts | 93° |
| 2026-04-17 13:17 | 10.28451 | -66.77474 | 3409 ft | 76 kts | 92° |
| 2026-04-17 13:17 | 10.28449 | -66.76924 | 3526 ft | 79 kts | 95° |
| 2026-04-17 13:17 | 10.28450 | -66.76372 | 3710 ft | 78 kts | 92° |
| 2026-04-17 13:17 | 10.28451 | -66.75816 | 3854 ft | 79 kts | 93° |
| 2026-04-17 13:18 | 10.28463 | -66.75257 | 3992 ft | 79 kts | 91° |
| 2026-04-17 13:18 | 10.28487 | -66.74718 | 4169 ft | 73 kts | 89° |
| 2026-04-17 13:18 | 10.28514 | -66.74213 | 4274 ft | 75 kts | 93° |
| 2026-04-17 13:18 | 10.28526 | -66.73649 | 4369 ft | 82 kts | 93° |
| 2026-04-17 13:19 | 10.28524 | -66.73077 | 4482 ft | 80 kts | 91° |
| 2026-04-17 13:19 | 10.28551 | -66.72513 | 4626 ft | 78 kts | 89° |
| 2026-04-17 13:19 | 10.28611 | -66.71994 | 4792 ft | 73 kts | 89° |
| 2026-04-17 13:19 | 10.28631 | -66.71455 | 4880 ft | 79 kts | 92° |
| 2026-04-17 13:20 | 10.28654 | -66.70883 | 4982 ft | 81 kts | 91° |
| 2026-04-17 13:20 | 10.28664 | -66.70312 | 5109 ft | 80 kts | 92° |
| 2026-04-17 13:20 | 10.28687 | -66.69735 | 5197 ft | 84 kts | 91° |
| 2026-04-17 13:20 | 10.28710 | -66.69151 | 5319 ft | 83 kts | 91° |
| 2026-04-17 13:21 | 10.28745 | -66.68571 | 5442 ft | 82 kts | 88° |
| 2026-04-17 13:21 | 10.28796 | -66.67984 | 5510 ft | 88 kts | 90° |
| 2026-04-17 13:21 | 10.28854 | -66.67316 | 5504 ft | 99 kts | 88° |
| 2026-04-17 13:21 | 10.28911 | -66.66624 | 5502 ft | 98 kts | 88° |
| 2026-04-17 13:22 | 10.28971 | -66.65935 | 5465 ft | 99 kts | 85° |
| 2026-04-17 13:22 | 10.29064 | -66.65252 | 5439 ft | 98 kts | 85° |
| 2026-04-17 13:22 | 10.29209 | -66.64574 | 5378 ft | 101 kts | 75° |
| 2026-04-17 13:22 | 10.29309 | -66.63884 | 5360 ft | 98 kts | 91° |
| 2026-04-17 13:23 | 10.29392 | -66.63218 | 5396 ft | 95 kts | 85° |
| 2026-04-17 13:23 | 10.29482 | -66.62545 | 5387 ft | 97 kts | 86° |
| 2026-04-17 13:23 | 10.29536 | -66.61873 | 5408 ft | 96 kts | 91° |
| 2026-04-17 13:23 | 10.29554 | -66.61192 | 5405 ft | 97 kts | 91° |
| 2026-04-17 13:24 | 10.29550 | -66.60506 | 5418 ft | 97 kts | 92° |
| 2026-04-17 13:24 | 10.29561 | -66.59821 | 5429 ft | 97 kts | 91° |
| 2026-04-17 13:24 | 10.29579 | -66.59135 | 5442 ft | 98 kts | 90° |
| 2026-04-17 13:24 | 10.29605 | -66.58435 | 5439 ft | 100 kts | 89° |
| 2026-04-17 13:25 | 10.29662 | -66.57738 | 5461 ft | 98 kts | 85° |
| 2026-04-17 13:25 | 10.29815 | -66.57053 | 5466 ft | 101 kts | 81° |
| 2026-04-17 13:25 | 10.29839 | -66.56353 | 5507 ft | 98 kts | 95° |
| 2026-04-17 13:25 | 10.29837 | -66.55668 | 5517 ft | 97 kts | 90° |
| 2026-04-17 13:26 | 10.29873 | -66.54972 | 5516 ft | 99 kts | 89° |
| 2026-04-17 13:26 | 10.29914 | -66.54282 | 5560 ft | 96 kts | 88° |
| 2026-04-17 13:26 | 10.29972 | -66.53605 | 5553 ft | 98 kts | 88° |
| 2026-04-17 13:26 | 10.30024 | -66.52913 | 5535 ft | 100 kts | 88° |
| 2026-04-17 13:27 | 10.30073 | -66.52207 | 5510 ft | 100 kts | 89° |
| 2026-04-17 13:27 | 10.30117 | -66.51503 | 5519 ft | 99 kts | 88° |
| 2026-04-17 13:27 | 10.30166 | -66.50804 | 5494 ft | 101 kts | 88° |
| 2026-04-17 13:27 | 10.30219 | -66.50093 | 5473 ft | 102 kts | 87° |
| 2026-04-17 13:28 | 10.30291 | -66.49369 | 5476 ft | 101 kts | 88° |
| 2026-04-17 13:28 | 10.30365 | -66.48657 | 5488 ft | 102 kts | 85° |
| 2026-04-17 13:28 | 10.30452 | -66.47941 | 5464 ft | 102 kts | 86° |
| 2026-04-17 13:28 | 10.30562 | -66.47229 | 5470 ft | 102 kts | 81° |
| 2026-04-17 13:29 | 10.30701 | -66.46517 | 5461 ft | 103 kts | 80° |
| 2026-04-17 13:29 | 10.30872 | -66.45820 | 5450 ft | 103 kts | 76° |
| 2026-04-17 13:29 | 10.31108 | -66.45138 | 5438 ft | 103 kts | 71° |
| 2026-04-17 13:29 | 10.31371 | -66.44458 | 5432 ft | 103 kts | 70° |
| 2026-04-17 13:30 | 10.31641 | -66.43784 | 5415 ft | 103 kts | 76° |
| 2026-04-17 13:30 | 10.31837 | -66.43084 | 5423 ft | 102 kts | 76° |
| 2026-04-17 13:30 | 10.32063 | -66.42392 | 5397 ft | 105 kts | 73° |
| 2026-04-17 13:30 | 10.32280 | -66.41692 | 5388 ft | 103 kts | 78° |
| 2026-04-17 13:31 | 10.32459 | -66.40978 | 5375 ft | 104 kts | 78° |
| 2026-04-17 13:31 | 10.32646 | -66.40274 | 5365 ft | 103 kts | 77° |
| 2026-04-17 13:31 | 10.32851 | -66.39570 | 5330 ft | 105 kts | 73° |
| 2026-04-17 13:31 | 10.33177 | -66.38886 | 5250 ft | 110 kts | 66° |
| 2026-04-17 13:32 | 10.33564 | -66.38192 | 5140 ft | 114 kts | 62° |
| 2026-04-17 13:32 | 10.33989 | -66.37502 | 5023 ft | 114 kts | 60° |
| 2026-04-17 13:32 | 10.34409 | -66.36817 | 4896 ft | 118 kts | 62° |
| 2026-04-17 13:32 | 10.34808 | -66.36097 | 4829 ft | 114 kts | 64° |
| 2026-04-17 13:33 | 10.35198 | -66.35383 | 4684 ft | 117 kts | 62° |
| 2026-04-17 13:33 | 10.35616 | -66.34661 | 4547 ft | 119 kts | 62° |
| 2026-04-17 13:33 | 10.36040 | -66.33941 | 4406 ft | 119 kts | 61° |
| 2026-04-17 13:33 | 10.36484 | -66.33234 | 4246 ft | 119 kts | 60° |
| 2026-04-17 13:34 | 10.36923 | -66.32519 | 4080 ft | 118 kts | 61° |
| 2026-04-17 13:34 | 10.37367 | -66.31811 | 3931 ft | 119 kts | 60° |
| 2026-04-17 13:34 | 10.37812 | -66.31098 | 3778 ft | 120 kts | 60° |
| 2026-04-17 13:34 | 10.38250 | -66.30376 | 3633 ft | 119 kts | 61° |
| 2026-04-17 13:35 | 10.38682 | -66.29662 | 3480 ft | 118 kts | 60° |
| 2026-04-17 13:35 | 10.39127 | -66.28950 | 3323 ft | 119 kts | 59° |
| 2026-04-17 13:35 | 10.39580 | -66.28244 | 3164 ft | 118 kts | 60° |
| 2026-04-17 13:35 | 10.39999 | -66.27531 | 3060 ft | 117 kts | 62° |
| 2026-04-17 13:36 | 10.40408 | -66.26820 | 2914 ft | 117 kts | 62° |
| 2026-04-17 13:36 | 10.40807 | -66.26099 | 2758 ft | 116 kts | 64° |
| 2026-04-17 13:36 | 10.41187 | -66.25371 | 2622 ft | 116 kts | 65° |
| 2026-04-17 13:36 | 10.41537 | -66.24634 | 2468 ft | 115 kts | 71° |
| 2026-04-17 13:37 | 10.41811 | -66.23865 | 2335 ft | 116 kts | 71° |
| 2026-04-17 13:37 | 10.42087 | -66.23095 | 2188 ft | 116 kts | 73° |
| 2026-04-17 13:37 | 10.42343 | -66.22321 | 2058 ft | 115 kts | 73° |
| 2026-04-17 13:37 | 10.42602 | -66.21561 | 1924 ft | 114 kts | 72° |
| 2026-04-17 13:38 | 10.42861 | -66.20799 | 1806 ft | 112 kts | 73° |
| 2026-04-17 13:38 | 10.43115 | -66.20062 | 1745 ft | 109 kts | 72° |
| 2026-04-17 13:38 | 10.43364 | -66.19335 | 1641 ft | 109 kts | 72° |
| 2026-04-17 13:38 | 10.43617 | -66.18607 | 1524 ft | 110 kts | 71° |
| 2026-04-17 13:39 | 10.43876 | -66.17876 | 1431 ft | 109 kts | 74° |
| 2026-04-17 13:39 | 10.44093 | -66.17137 | 1347 ft | 110 kts | 76° |
| 2026-04-17 13:39 | 10.44300 | -66.16385 | 1257 ft | 111 kts | 78° |
| 2026-04-17 13:39 | 10.44481 | -66.15622 | 1158 ft | 111 kts | 77° |
| 2026-04-17 13:40 | 10.44685 | -66.14869 | 1060 ft | 111 kts | 75° |
| 2026-04-17 13:40 | 10.44902 | -66.14122 | 1009 ft | 109 kts | 77° |
| 2026-04-17 13:40 | 10.45069 | -66.13363 | 876 ft | 111 kts | 78° |
| 2026-04-17 13:40 | 10.45238 | -66.12605 | 742 ft | 108 kts | 79° |
| 2026-04-17 13:41 | 10.45377 | -66.11895 | 601 ft | 96 kts | 79° |
| 2026-04-17 13:41 | 10.45533 | -66.11268 | 468 ft | 88 kts | 74° |
| 2026-04-17 13:41 | 10.45710 | -66.10727 | 338 ft | 76 kts | 71° |
| 2026-04-17 13:41 | 10.45889 | -66.10242 | 189 ft | 71 kts | 70° |
| 2026-04-17 13:42 | 10.46059 | -66.09774 | 31 ft | 68 kts | 71° |
| 2026-04-17 13:42 | 10.46193 | -66.09411 | 15 ft | 39 kts | 70° |
| 2026-04-17 13:42 | 10.46243 | -66.09281 | 14 ft | 9 kts | 57° |
| 2026-04-17 13:42 | 10.46293 | -66.09278 | 14 ft | 7 kts | 339° |
| 2026-04-17 13:43 | 10.46335 | -66.09298 | 12 ft | 8 kts | 313° |
| 2026-04-17 13:43 | 10.46316 | -66.09364 | 15 ft | 13 kts | 252° |
| 2026-04-17 13:43 | 10.46285 | -66.09454 | 15 ft | 9 kts | 250° |
| 2026-04-17 13:43 | 10.46318 | -66.09498 | 14 ft | 10 kts | 341° |
| 2026-04-17 13:44 | 10.46370 | -66.09509 | 15 ft | 0 kts | 346° |